createdAt,value
2023-05-19T00:02:09.419Z,11.50
2023-05-19T00:04:40.754Z,11.50
2023-05-19T00:07:11.660Z,11.40
2023-05-19T00:09:40.253Z,11.40
2023-05-19T00:12:10.735Z,11.40
2023-05-19T00:14:40.974Z,11.30
2023-05-19T00:17:10.070Z,11.30
2023-05-19T00:19:38.137Z,11.30
2023-05-19T00:22:06.359Z,11.30
2023-05-19T00:24:35.081Z,11.70
2023-05-19T00:27:03.052Z,11.20
2023-05-19T00:29:31.400Z,11.30
2023-05-19T00:32:01.443Z,11.10
2023-05-19T00:34:29.639Z,12.00
2023-05-19T00:36:57.758Z,11.10
2023-05-19T00:39:25.882Z,11.00
2023-05-19T00:41:53.968Z,11.10
2023-05-19T00:44:22.022Z,11.00
2023-05-19T00:46:50.171Z,10.90
2023-05-19T00:49:19.701Z,10.90
2023-05-19T00:51:48.014Z,11.10
2023-05-19T00:54:16.682Z,11.20
2023-05-19T00:56:44.838Z,10.80
2023-05-19T00:59:13.321Z,11.00
2023-05-19T01:01:41.594Z,10.50
2023-05-19T01:04:10.801Z,10.80
2023-05-19T01:06:40.507Z,10.70
2023-05-19T01:09:09.139Z,11.00
2023-05-19T01:11:37.307Z,11.00
2023-05-19T01:14:06.227Z,11.40
2023-05-19T01:16:39.620Z,10.60
2023-05-19T01:19:22.916Z,10.60
2023-05-19T01:22:23.171Z,10.50
2023-05-19T01:25:17.677Z,10.50
2023-05-19T01:28:09.527Z,10.70
2023-05-19T01:30:42.358Z,10.50
2023-05-19T01:33:14.124Z,10.70
2023-05-19T01:35:44.156Z,10.40
2023-05-19T01:38:14.341Z,11.30
2023-05-19T01:40:43.708Z,10.30
2023-05-19T01:43:17.790Z,10.60
2023-05-19T01:45:48.249Z,10.70
2023-05-19T01:48:16.792Z,10.30
2023-05-19T01:50:45.316Z,10.30
2023-05-19T01:53:13.680Z,10.30
2023-05-19T01:55:45.870Z,10.70
2023-05-19T01:58:20.721Z,10.50
2023-05-19T02:00:58.665Z,10.40
2023-05-19T02:03:46.739Z,10.10
2023-05-19T02:06:24.124Z,10.30
2023-05-19T02:09:03.706Z,10.20
2023-05-19T02:11:38.620Z,10.20
2023-05-19T02:14:12.823Z,10.20
2023-05-19T02:16:45.613Z,10.20
2023-05-19T02:19:23.015Z,10.10
2023-05-19T02:21:51.282Z,10.00
2023-05-19T02:24:20.207Z,9.90
2023-05-19T02:26:48.484Z,9.90
2023-05-19T02:29:16.567Z,10.00
2023-05-19T02:31:46.093Z,10.10
2023-05-19T02:34:14.309Z,10.10
2023-05-19T02:36:44.182Z,10.00
2023-05-19T02:39:12.525Z,10.00
2023-05-19T02:41:41.054Z,9.90
2023-05-19T02:44:09.243Z,10.00
2023-05-19T02:46:37.389Z,9.80
2023-05-19T02:49:07.740Z,10.00
2023-05-19T02:51:36.070Z,10.10
2023-05-19T02:54:04.178Z,9.70
2023-05-19T02:56:32.233Z,9.80
2023-05-19T02:59:00.942Z,9.80
2023-05-19T03:01:30.103Z,10.20
2023-05-19T03:03:58.282Z,9.80
2023-05-19T03:06:28.304Z,9.50
2023-05-19T03:08:56.565Z,9.80
2023-05-19T03:11:24.979Z,10.00
2023-05-19T03:13:53.137Z,9.70
2023-05-19T03:16:22.119Z,9.90
2023-05-19T03:18:50.379Z,9.80
2023-05-19T03:21:18.606Z,9.80
2023-05-19T03:23:48.479Z,9.80
2023-05-19T03:26:16.845Z,9.80
2023-05-19T03:28:45.062Z,9.80
2023-05-19T03:31:16.459Z,9.80
2023-05-19T03:33:48.558Z,9.80
2023-05-19T03:36:17.592Z,10.20
2023-05-19T03:38:47.070Z,10.10
2023-05-19T03:41:15.288Z,10.20
2023-05-19T03:43:43.714Z,9.90
2023-05-19T03:46:11.729Z,9.80
2023-05-19T03:48:39.796Z,10.00
2023-05-19T03:51:09.098Z,9.90
2023-05-19T03:53:37.990Z,9.80
2023-05-19T03:56:08.994Z,9.90
2023-05-19T03:58:40.859Z,9.80
2023-05-19T04:01:09.304Z,9.80
2023-05-19T04:03:37.469Z,9.80
2023-05-19T04:06:06.691Z,9.80
2023-05-19T04:08:34.888Z,9.80
2023-05-19T04:11:02.835Z,9.70
2023-05-19T04:13:33.787Z,9.70
2023-05-19T04:16:02.267Z,9.70
2023-05-19T04:18:30.323Z,9.80
2023-05-19T04:20:58.740Z,9.90
2023-05-19T04:23:26.841Z,9.70
2023-05-19T04:25:57.102Z,9.60
2023-05-19T04:28:25.159Z,9.80
2023-05-19T04:30:54.893Z,10.10
2023-05-19T04:33:23.019Z,9.90
2023-05-19T04:35:51.668Z,9.80
2023-05-19T04:38:20.302Z,9.90
2023-05-19T04:40:50.369Z,9.80
2023-05-19T04:43:19.417Z,10.10
2023-05-19T04:45:50.267Z,10.10
2023-05-19T04:48:21.668Z,10.10
2023-05-19T04:50:53.229Z,10.20
2023-05-19T04:53:22.092Z,10.00
2023-05-19T04:55:50.373Z,10.20
2023-05-19T04:58:18.475Z,10.20
2023-05-19T05:00:46.539Z,10.30
2023-05-19T05:03:17.525Z,10.30
2023-05-19T05:05:47.074Z,10.40
2023-05-19T05:08:21.839Z,10.50
2023-05-19T05:10:51.245Z,11.10
2023-05-19T05:13:20.740Z,10.70
2023-05-19T05:15:52.200Z,10.60
2023-05-19T05:18:21.170Z,10.70
2023-05-19T05:20:51.355Z,10.60
2023-05-19T05:23:19.973Z,10.70
2023-05-19T05:25:49.145Z,10.70
2023-05-19T05:28:17.547Z,10.70
2023-05-19T05:30:46.429Z,11.00
2023-05-19T05:33:15.222Z,10.90
2023-05-19T05:35:46.750Z,11.00
2023-05-19T05:38:16.256Z,11.10
2023-05-19T05:40:44.386Z,11.20
2023-05-19T05:43:12.524Z,11.10
2023-05-19T05:45:40.619Z,11.40
2023-05-19T05:48:09.524Z,11.40
2023-05-19T05:50:38.407Z,11.40
2023-05-19T05:53:10.745Z,11.40
2023-05-19T05:55:41.091Z,11.50
2023-05-19T05:58:11.111Z,11.50
2023-05-19T06:00:39.800Z,11.40
2023-05-19T06:03:08.270Z,11.70
2023-05-19T06:05:36.755Z,11.80
2023-05-19T06:08:05.614Z,11.80
2023-05-19T06:10:35.743Z,11.70
2023-05-19T06:13:05.525Z,11.70
2023-05-19T06:15:33.799Z,11.80
2023-05-19T06:18:02.344Z,12.10
2023-05-19T06:20:30.974Z,12.00
2023-05-19T06:22:59.667Z,12.00
2023-05-19T06:25:28.158Z,12.10
2023-05-19T06:27:56.354Z,12.20
2023-05-19T06:30:26.001Z,12.20
2023-05-19T06:32:54.096Z,12.20
2023-05-19T06:35:22.179Z,12.40
2023-05-19T06:37:50.463Z,12.60
2023-05-19T06:40:18.883Z,12.60
2023-05-19T06:42:47.115Z,12.60
2023-05-19T06:45:15.362Z,12.60
2023-05-19T06:47:46.307Z,12.60
2023-05-19T06:50:14.543Z,12.60
2023-05-19T06:52:42.817Z,12.60
2023-05-19T06:55:11.372Z,12.70
2023-05-19T06:57:39.673Z,12.70
2023-05-19T07:00:09.796Z,12.90
2023-05-19T07:02:37.938Z,12.90
2023-05-19T07:05:08.246Z,13.00
2023-05-19T07:07:36.623Z,13.00
2023-05-19T07:10:04.984Z,13.00
2023-05-19T07:12:33.065Z,13.10
2023-05-19T07:15:03.997Z,13.10
2023-05-19T07:17:32.193Z,13.40
2023-05-19T07:20:01.656Z,13.30
2023-05-19T07:22:31.245Z,13.40
2023-05-19T07:24:59.523Z,13.50
2023-05-19T07:27:27.529Z,13.50
2023-05-19T07:29:55.855Z,13.60
2023-05-19T07:32:24.160Z,13.70
2023-05-19T07:34:52.716Z,13.90
2023-05-19T07:37:21.017Z,13.90
2023-05-19T07:39:50.808Z,14.00
2023-05-19T07:42:19.061Z,14.00
2023-05-19T07:44:49.136Z,14.20
2023-05-19T07:47:19.336Z,14.30
2023-05-19T07:49:49.118Z,14.30
2023-05-19T07:52:18.932Z,14.40
2023-05-19T07:54:50.989Z,14.60
2023-05-19T07:57:20.629Z,14.50
2023-05-19T07:59:48.815Z,14.60
2023-05-19T08:02:17.091Z,14.70
2023-05-19T08:04:45.283Z,14.90
2023-05-19T08:07:13.359Z,14.80
2023-05-19T08:09:42.795Z,15.10
2023-05-19T08:12:10.956Z,15.20
2023-05-19T08:14:40.529Z,15.20
2023-05-19T08:17:08.886Z,15.20
2023-05-19T08:19:37.066Z,15.20
2023-05-19T08:22:05.401Z,15.30
2023-05-19T08:24:36.322Z,15.30
2023-05-19T08:27:05.069Z,15.60
2023-05-19T08:29:33.288Z,15.50
2023-05-19T08:32:02.914Z,15.70
2023-05-19T08:34:31.209Z,15.70
2023-05-19T08:36:59.795Z,15.90
2023-05-19T08:39:28.339Z,16.10
2023-05-19T08:41:56.727Z,16.30
2023-05-19T08:44:24.991Z,16.30
2023-05-19T08:46:56.443Z,16.40
2023-05-19T08:49:29.175Z,16.60
2023-05-19T08:52:02.015Z,16.70
2023-05-19T08:54:35.348Z,16.60
2023-05-19T08:57:05.387Z,16.60
2023-05-19T08:59:37.897Z,16.70
2023-05-19T09:02:07.214Z,16.80
2023-05-19T09:04:37.144Z,16.90
2023-05-19T09:07:05.535Z,17.00
2023-05-19T09:09:34.479Z,17.10
2023-05-19T09:12:04.591Z,17.20
2023-05-19T09:14:34.835Z,17.30
2023-05-19T09:17:03.486Z,17.40
2023-05-19T09:19:32.059Z,17.60
2023-05-19T09:22:04.969Z,17.80
2023-05-19T09:24:33.549Z,17.70
2023-05-19T09:27:02.313Z,17.90
2023-05-19T09:29:30.448Z,17.90
2023-05-19T09:32:03.371Z,18.20
2023-05-19T09:34:32.985Z,18.40
2023-05-19T09:37:02.427Z,18.60
2023-05-19T09:39:32.880Z,18.60
2023-05-19T09:42:05.604Z,18.60
2023-05-19T09:44:38.361Z,18.40
2023-05-19T09:47:06.488Z,18.50
2023-05-19T09:49:35.010Z,18.50
2023-05-19T09:52:05.834Z,18.70
2023-05-19T09:54:37.179Z,18.80
2023-05-19T09:57:08.546Z,18.90
2023-05-19T09:59:43.412Z,19.00
2023-05-19T10:02:18.066Z,19.30
2023-05-19T10:04:47.676Z,19.30
2023-05-19T10:07:18.699Z,19.20
2023-05-19T10:09:49.488Z,19.20
2023-05-19T10:12:19.702Z,19.10
2023-05-19T10:14:53.703Z,19.30
2023-05-19T10:17:22.539Z,19.30
2023-05-19T10:19:54.845Z,19.60
2023-05-19T10:22:24.577Z,19.70
2023-05-19T10:24:53.229Z,19.70
2023-05-19T10:27:22.631Z,19.50
2023-05-19T10:29:53.098Z,19.70
2023-05-19T10:32:29.685Z,19.90
2023-05-19T10:35:49.462Z,19.80
2023-05-19T10:38:28.747Z,20.00
2023-05-19T10:41:08.919Z,20.30
2023-05-19T10:43:53.457Z,20.20
2023-05-19T10:46:25.964Z,20.30
2023-05-19T10:48:57.465Z,20.20
2023-05-19T10:51:33.073Z,20.30
2023-05-19T10:54:12.174Z,20.30
2023-05-19T10:56:50.321Z,20.70
2023-05-19T10:59:41.790Z,21.00
2023-05-19T11:02:16.339Z,20.90
2023-05-19T11:04:51.863Z,20.60
2023-05-19T11:07:37.305Z,20.50
2023-05-19T11:10:15.414Z,20.40
2023-05-19T11:12:55.281Z,20.10
2023-05-19T11:15:51.684Z,19.70
2023-05-19T11:18:28.707Z,19.90
2023-05-19T11:21:16.066Z,20.30
2023-05-19T11:23:57.212Z,20.40
2023-05-19T11:27:02.008Z,20.50
2023-05-19T11:29:45.092Z,20.70
2023-05-19T11:32:24.898Z,20.90
2023-05-19T11:34:57.127Z,21.00
2023-05-19T11:37:25.571Z,21.00
2023-05-19T11:39:54.357Z,21.00
2023-05-19T11:42:32.312Z,21.20
2023-05-19T11:45:12.285Z,21.40
2023-05-19T11:48:01.383Z,21.00
2023-05-19T11:50:33.697Z,20.90
2023-05-19T11:53:07.134Z,20.90
2023-05-19T11:55:45.252Z,20.70
2023-05-19T12:01:06.871Z,20.30
2023-05-19T12:03:35.950Z,20.10
2023-05-19T12:06:11.462Z,19.80
2023-05-19T12:09:02.489Z,19.70
2023-05-19T12:11:39.111Z,19.80
2023-05-19T12:14:15.506Z,19.80
2023-05-19T12:16:44.569Z,20.00
2023-05-19T12:19:19.279Z,20.00
2023-05-19T12:21:55.166Z,19.90
2023-05-19T12:24:28.791Z,20.00
2023-05-19T12:27:07.962Z,20.40
2023-05-19T12:29:41.022Z,20.60
2023-05-19T12:32:13.025Z,20.90
2023-05-19T12:34:41.873Z,21.10
2023-05-19T12:37:14.428Z,21.10
2023-05-19T12:39:44.593Z,21.00
2023-05-19T12:42:14.336Z,21.10
2023-05-19T12:44:47.945Z,21.20
2023-05-19T12:47:22.542Z,21.10
2023-05-19T12:49:58.076Z,21.30
2023-05-19T12:52:27.044Z,21.50
2023-05-19T12:55:01.640Z,21.60
2023-05-19T12:57:33.591Z,21.40
2023-05-19T13:00:07.201Z,20.90
2023-05-19T13:02:40.898Z,21.00
2023-05-19T13:05:09.650Z,20.90
2023-05-19T13:07:38.263Z,21.20
2023-05-19T13:10:07.331Z,21.30
2023-05-19T13:12:36.274Z,21.30
2023-05-19T13:15:08.658Z,21.30
2023-05-19T13:17:38.188Z,21.40
2023-05-19T13:20:09.468Z,21.30
2023-05-19T13:22:38.147Z,21.20
2023-05-19T13:25:10.428Z,21.30
2023-05-19T13:27:53.762Z,21.30
2023-05-19T13:30:29.795Z,21.40
2023-05-19T13:32:58.392Z,21.60
2023-05-19T13:35:29.718Z,21.50
2023-05-19T13:38:04.479Z,21.30
2023-05-19T13:40:41.777Z,21.20
2023-05-19T13:43:14.857Z,20.90
2023-05-19T13:46:06.333Z,20.90
2023-05-19T13:48:40.299Z,20.80
2023-05-19T13:51:22.947Z,20.80
2023-05-19T13:53:51.152Z,20.70
2023-05-19T13:56:22.170Z,20.90
2023-05-19T13:59:09.422Z,20.90
2023-05-19T14:01:50.837Z,20.90
2023-05-19T14:04:20.210Z,21.00
2023-05-19T14:06:50.902Z,20.90
2023-05-19T14:09:28.004Z,20.90
2023-05-19T14:11:56.771Z,20.90
2023-05-19T14:14:24.941Z,21.10
2023-05-19T14:16:57.453Z,21.00
2023-05-19T14:19:30.314Z,20.90
2023-05-19T14:22:05.150Z,20.90
2023-05-19T14:24:39.456Z,20.90
2023-05-19T14:27:07.875Z,21.00
2023-05-19T14:29:38.942Z,21.10
2023-05-19T14:32:09.406Z,21.20
2023-05-19T14:34:37.548Z,21.20
2023-05-19T14:37:05.928Z,21.20
2023-05-19T14:39:34.265Z,21.00
2023-05-19T14:42:02.464Z,21.30
2023-05-19T14:44:37.588Z,21.10
2023-05-19T14:47:07.664Z,21.20
2023-05-19T14:49:37.825Z,21.60
2023-05-19T14:52:06.672Z,21.60
2023-05-19T14:54:35.098Z,21.60
2023-05-19T14:57:03.325Z,21.60
2023-05-19T14:59:31.805Z,21.40
2023-05-19T15:02:00.106Z,21.40
2023-05-19T15:04:28.355Z,21.40
2023-05-19T15:09:44.020Z,21.60
2023-05-19T15:12:12.603Z,21.40
2023-05-19T15:14:40.613Z,21.40
2023-05-19T15:17:08.769Z,21.30
2023-05-19T15:19:36.957Z,21.40
2023-05-19T15:22:06.699Z,21.40
2023-05-19T15:24:35.077Z,21.60
2023-05-19T15:27:03.638Z,21.50
2023-05-19T15:29:31.760Z,21.50
2023-05-19T15:31:59.984Z,21.50
2023-05-19T15:34:28.023Z,21.60
2023-05-19T15:36:56.560Z,21.50
2023-05-19T15:39:26.288Z,21.40
2023-05-19T15:41:54.455Z,21.40
2023-05-19T15:44:22.570Z,21.30
2023-05-19T15:46:50.851Z,21.50
2023-05-19T15:49:19.226Z,21.70
2023-05-19T15:51:47.730Z,21.70
2023-05-19T15:54:15.949Z,21.70
2023-05-19T15:56:45.542Z,21.60
2023-05-19T15:59:13.942Z,21.50
2023-05-19T16:01:42.289Z,21.50
2023-05-19T16:04:10.891Z,21.50
2023-05-19T16:06:39.078Z,21.50
2023-05-19T16:09:09.824Z,21.60
2023-05-19T16:11:40.663Z,21.70
2023-05-19T16:14:10.208Z,21.80
2023-05-19T16:16:38.473Z,21.80
2023-05-19T16:19:06.754Z,21.70
2023-05-19T16:21:35.035Z,21.70
2023-05-19T16:24:03.330Z,21.70
2023-05-19T16:26:31.498Z,21.70
2023-05-19T16:28:59.732Z,21.60
2023-05-19T16:31:30.993Z,21.80
2023-05-19T16:33:59.259Z,21.80
2023-05-19T16:36:27.287Z,21.80
2023-05-19T16:38:55.445Z,22.00
2023-05-19T16:41:23.593Z,21.70
2023-05-19T16:43:51.646Z,21.60
2023-05-19T16:46:19.818Z,21.60
2023-05-19T16:48:49.537Z,21.70
2023-05-19T16:51:17.813Z,21.80
2023-05-19T16:53:46.388Z,21.70
2023-05-19T16:56:14.779Z,21.70
2023-05-19T16:58:43.158Z,21.60
2023-05-19T17:01:12.206Z,21.70
2023-05-19T17:03:42.812Z,21.70
2023-05-19T17:06:12.240Z,21.60
2023-05-19T17:08:40.291Z,21.60
2023-05-19T17:11:08.619Z,21.70
2023-05-19T17:13:37.241Z,21.70
2023-05-19T17:16:05.587Z,21.50
2023-05-19T17:18:33.807Z,21.50
2023-05-19T17:21:04.954Z,21.50
2023-05-19T17:23:34.920Z,21.40
2023-05-19T17:26:03.317Z,21.30
2023-05-19T17:28:31.830Z,21.20
2023-05-19T17:31:00.221Z,21.10
2023-05-19T17:33:28.527Z,21.20
2023-05-19T17:35:58.680Z,21.20
2023-05-19T17:38:26.842Z,21.30
2023-05-19T17:40:59.206Z,21.20
2023-05-19T17:43:27.723Z,21.40
2023-05-19T17:45:58.154Z,21.50
2023-05-19T17:48:26.910Z,21.50
2023-05-19T17:50:55.312Z,21.60
2023-05-19T17:53:24.005Z,21.60
2023-05-19T17:55:53.443Z,21.50
2023-05-19T17:58:23.534Z,21.40
2023-05-19T18:00:56.552Z,21.30
2023-05-19T18:03:25.659Z,21.30
2023-05-19T18:05:54.281Z,21.40
2023-05-19T18:08:23.324Z,21.30
2023-05-19T18:10:52.906Z,21.10
2023-05-19T18:13:23.703Z,20.90
2023-05-19T18:15:53.384Z,20.70
2023-05-19T18:18:21.828Z,20.60
2023-05-19T18:20:49.933Z,20.50
2023-05-19T18:23:19.372Z,20.40
2023-05-19T18:25:51.765Z,20.20
2023-05-19T18:28:19.989Z,19.70
2023-05-19T18:30:59.249Z,19.70
2023-05-19T18:33:29.338Z,19.50
2023-05-19T18:35:59.649Z,19.40
2023-05-19T18:38:28.165Z,19.30
2023-05-19T18:40:57.957Z,19.20
2023-05-19T18:43:26.225Z,19.20
2023-05-19T18:45:55.852Z,19.10
2023-05-19T18:48:25.617Z,19.00
2023-05-19T18:50:53.724Z,18.80
2023-05-19T18:53:22.797Z,18.70
2023-05-19T18:55:51.112Z,18.70
2023-05-19T18:58:19.564Z,18.60
2023-05-19T19:00:48.166Z,18.50
2023-05-19T19:03:17.988Z,18.30
2023-05-19T19:05:46.278Z,18.20
2023-05-19T19:08:14.350Z,18.10
2023-05-19T19:10:44.473Z,17.90
2023-05-19T19:13:12.784Z,17.80
2023-05-19T19:15:40.976Z,17.70
2023-05-19T19:18:09.378Z,17.60
2023-05-19T19:20:39.058Z,17.60
2023-05-19T19:23:07.674Z,17.50
2023-05-19T19:25:36.179Z,17.30
2023-05-19T19:28:05.026Z,17.30
2023-05-19T19:30:33.455Z,17.30
2023-05-19T19:33:01.955Z,17.40
2023-05-19T19:35:30.881Z,17.20
2023-05-19T19:38:01.119Z,17.20
2023-05-19T19:40:29.521Z,17.30
2023-05-19T19:42:58.186Z,17.10
2023-05-19T19:45:26.518Z,17.00
2023-05-19T19:47:55.081Z,16.90
2023-05-19T19:50:23.713Z,16.80
2023-05-19T19:52:52.078Z,16.80
2023-05-19T19:55:21.668Z,16.80
2023-05-19T19:57:51.240Z,16.50
2023-05-19T20:00:23.167Z,16.70
2023-05-19T20:03:04.283Z,16.70
2023-05-19T20:05:33.378Z,16.60
2023-05-19T20:08:01.898Z,16.50
2023-05-19T20:10:32.818Z,16.50
2023-05-19T20:13:01.315Z,16.50
2023-05-19T20:15:29.487Z,16.50
2023-05-19T20:17:57.646Z,16.50
2023-05-19T20:20:25.871Z,16.40
2023-05-19T20:22:54.175Z,16.40
2023-05-19T20:25:22.394Z,16.50
2023-05-19T20:27:52.219Z,16.40
2023-05-19T20:30:20.846Z,16.40
2023-05-19T20:32:49.174Z,16.40
2023-05-19T20:35:17.504Z,16.40
2023-05-19T20:37:45.674Z,16.50
2023-05-19T20:40:14.142Z,16.30
2023-05-19T20:42:42.511Z,16.50
2023-05-19T20:45:13.906Z,16.30
2023-05-19T20:47:42.334Z,16.30
2023-05-19T20:50:10.512Z,16.40
2023-05-19T20:52:38.797Z,16.30
2023-05-19T20:55:07.300Z,16.20
2023-05-19T20:57:36.152Z,16.10
2023-05-19T21:00:04.712Z,16.10
2023-05-19T21:02:34.186Z,16.10
2023-05-19T21:05:02.516Z,16.00
2023-05-19T21:07:30.677Z,15.90
2023-05-19T21:09:58.676Z,15.90
2023-05-19T21:12:29.388Z,15.90
2023-05-19T21:14:57.565Z,15.80
2023-05-19T21:17:25.808Z,15.80
2023-05-19T21:19:59.549Z,15.80
2023-05-19T21:22:28.437Z,15.80
2023-05-19T21:24:56.616Z,15.80
2023-05-19T21:27:25.058Z,15.70
2023-05-19T21:29:54.305Z,15.70
2023-05-19T21:32:23.104Z,15.70
2023-05-19T21:34:51.249Z,15.60
2023-05-19T21:37:21.734Z,15.60
2023-05-19T21:39:49.874Z,15.60
2023-05-19T21:42:17.994Z,15.50
2023-05-19T21:44:46.026Z,15.50
2023-05-19T21:47:14.342Z,15.40
2023-05-19T21:49:42.363Z,15.50
2023-05-19T21:52:11.220Z,15.40
2023-05-19T21:54:40.707Z,15.40
2023-05-19T21:57:11.209Z,15.40
2023-05-19T21:59:39.478Z,15.30
2023-05-19T22:02:07.933Z,15.40
2023-05-19T22:04:37.198Z,15.20
2023-05-19T22:07:14.542Z,15.20
2023-05-19T22:09:44.015Z,15.30
2023-05-19T22:12:12.024Z,15.10
2023-05-19T22:14:40.103Z,15.10
2023-05-19T22:17:08.091Z,15.10
2023-05-19T22:19:36.942Z,15.10
2023-05-19T22:22:13.220Z,15.10
2023-05-19T22:24:43.981Z,15.00
2023-05-19T22:27:12.066Z,15.00
2023-05-19T22:29:40.213Z,15.00
2023-05-19T22:32:11.894Z,15.00
2023-05-19T22:34:40.275Z,15.00
2023-05-19T22:37:08.396Z,15.00
2023-05-19T22:39:36.678Z,15.00
2023-05-19T22:42:07.108Z,15.10
2023-05-19T22:44:35.276Z,14.90
2023-05-19T22:47:03.434Z,15.00
2023-05-19T22:49:31.551Z,14.90
2023-05-19T22:51:59.682Z,14.90
2023-05-19T22:54:27.805Z,14.90
2023-05-19T22:56:58.241Z,14.90
2023-05-19T22:59:27.665Z,14.90
2023-05-19T23:01:56.002Z,14.80
2023-05-19T23:04:24.128Z,14.80
2023-05-19T23:06:52.360Z,14.80
2023-05-19T23:09:20.603Z,14.70
2023-05-19T23:11:48.904Z,14.70
2023-05-19T23:14:18.526Z,14.70
2023-05-19T23:16:48.160Z,14.70
2023-05-19T23:19:17.115Z,14.80
2023-05-19T23:21:46.449Z,14.50
2023-05-19T23:24:14.828Z,14.60
2023-05-19T23:26:43.990Z,14.50
2023-05-19T23:29:12.986Z,14.70
2023-05-19T23:31:41.293Z,14.50
2023-05-19T23:34:11.325Z,14.50
2023-05-19T23:36:39.841Z,14.50
2023-05-19T23:39:07.901Z,14.50
2023-05-19T23:41:36.881Z,14.40
2023-05-19T23:44:05.042Z,14.30
2023-05-19T23:46:33.435Z,14.40
2023-05-19T23:49:01.594Z,14.30
2023-05-19T23:51:31.906Z,14.40
2023-05-19T23:54:00.232Z,14.30
2023-05-19T23:56:28.411Z,14.30
2023-05-19T23:58:56.711Z,14.30
